Florian Schuster

Olheiro-Chefe - FC Augsburg
22 Fev 2028
Terça-feira
Processo

Personalidade

Adaptabilidade (3) Ambição (17) Controvérsia (18) Lealdade (16) Pressão (10) Profissionalismo (1) Espírito Esportivo (7) Temperamento (12)

Perfil

Estilo de Treinamento Democrático
Licença Continental A
Determinação 12
Gestão de Pessoas 5
Motivação 12
Disciplina 5
Satisfação no Trabalho
70%
Fadiga
0%
Função Olheiro-Chefe
Salário 26.7K p/s
Contrato 14.03.2029

Desempenho

Comportamento Bom
Eficácia do Treinamento
39%
Desenvolvimento do Jogador
40%
Prevenção de Lesões
55%
Implementação Tática
55%

Eventos Recentes

Participou de uma reunião de recrutamento agora
Participou de uma reunião de recrutamento agora
Recomendou um alvo de transferência agora
Recomendou um alvo de transferência agora
Recomendou um alvo de transferência 7d atrás
Recomendou um alvo de transferência 7d atrás
Avaliou um jogador 7d atrás
Observou uma partida 7d atrás

Monitorando agora

238
Jogador Clube Status Habilidade Confiança Observado Última observação Último voto
Josh Nichols Tranmere Rovers Ativo 121 / 123 40% 5 15.02.2028 -
Daniel Banjaqui Benfica Ativo 116 / 129 40% 1 15.02.2028 -
Khalis Merah Toulouse FC Ativo 129 / 138 40% 1 15.02.2028 -
Izan Merino Málaga Ativo 127 / 132 40% 2 13.02.2028 -
Martim Cunha Porto Ativo 104 / 110 40% 3 13.02.2028 -
Myles Lewis-Skelly Birmingham Ativo 151 / 159 40% 3 13.02.2028 -
Avery Appiah Ajax Ativo 125 / 120 40% 1 12.02.2028 -
Kevin Vazquez Cruz Azul Ativo 134 / 144 40% 6 09.02.2028 -
Halam Loboa Tijuana Ativo 117 / 119 40% 4 09.02.2028 -
Lucas Høgsberg RC Strasbourg Ativo 140 / 141 40% 1 09.02.2028 -
Noahkai Banks Hamburger SV Ativo 130 / 140 40% 2 08.02.2028 -
Luis Otávio Colorado Rapids Ativo 115 / 121 40% 2 08.02.2028 -
Nathan De Cat Hamburger SV Ativo 135 / 143 40% 1 08.02.2028 -
Nhoa Sangui Chamois Niortais Ativo 128 / 132 40% 1 07.02.2028 -
Archie Gray Derby County Ativo 158 / 152 40% 3 31.01.2028 -
Mikkel Hope Haugesund Ativo 102 / 107 40% 3 31.01.2028 -
Esquerdinha Shrewsbury Town Negociando 118 / 126 40% 4 31.01.2028 -
Ernie Weaver AFC Wimbledon Negociando 114 / 121 40% 2 24.01.2028 -
Trey Nyoni Rotherham United Ativo 139 / 141 40% 2 24.01.2028 -
Rivaldo Grobler Free State Stars Ativo 92 / 115 40% 1 24.01.2028 -
Marc Bernal Real Sociedad Ativo 153 / 154 40% 3 17.01.2028 -
Ronan Kpakio Cardiff City Perdido 121 / 131 40% 4 17.01.2028 -
Alpha Touré FC Metz Perdido 118 / 125 40% 1 17.01.2028 -
Mao Hosoya Everton Negociando 134 / 135 67% 1 01.01.2028 Aprovar
Federico Pereira Nacional Negociando 135 / 135 68% 1 01.01.2028 Aprovar
Ricky Atletico Venezuela Ativo 96 / 98 40% 2 22.12.2027 -
Giovanni Leoni Bradford City Ativo 136 / 145 40% 3 22.12.2027 -
Givairo Read Feyenoord Ativo 143 / 155 40% 4 19.12.2027 -
Jussef Nasrawe SV Ried Ativo 107 / 111 40% 5 17.12.2027 -
Sebastián Ramírez Jaguares Ativo 95 / 119 40% 2 17.12.2027 -
Eduardo Felicíssimo Sporting CP Ativo 123 / 124 40% 1 16.12.2027 -
Fodé Sylla Sion Ativo 114 / 129 40% 2 15.12.2027 -
Mads Bomholt Stabaek Ativo 118 / 111 40% 5 14.12.2027 -
Ayden Heaven Luton Town Ativo 147 / 149 40% 2 13.12.2027 -
Buba Sangaré Elche Ativo 122 / 135 40% 1 13.12.2027 -
Joel Ezra Enyimba Ativo 87 / 104 40% 5 12.12.2027 -
Kauã Moraes Cruzeiro Ativo 120 / 136 40% 2 12.12.2027 -
Olivier Mambwa Young Boys Ativo 116 / 122 40% 4 10.12.2027 -
Tiago Parente Benfica Ativo 105 / 111 40% 1 08.12.2027 -
Victor Froholdt Porto Ativo 146 / 162 40% 1 07.12.2027 -
Stefan Lainer Lugano Ativo 111 / 112 40% 1 07.12.2027 -
Matteo Pérez Vinlöf Dinamo Zagreb Ativo 127 / 124 40% 5 03.12.2027 -
Bahia Criciuma Ativo 124 / 124 40% 1 03.12.2027 -
Bung Meng Freimann Luzern Ativo 119 / 117 40% 2 02.12.2027 -
Alejandro Almaraz Nueva Chicago Ativo 119 / 116 40% 3 30.11.2027 -
Caleb Yirenkyi Coventry City Ativo 148 / 143 40% 3 29.11.2027 -
Jorge Salinas Racing Santander Ativo 133 / 132 40% 2 28.11.2027 -
Mauro Carrizo Atlético Tucumán Ativo 104 / 111 40% 5 28.11.2027 -
Pape Diong Westerlo Ativo 116 / 129 40% 1 26.11.2027 -
Christos Mouzakitis Hull City Ativo 145 / 143 40% 2 25.11.2027 -
Jovan Milosavljević Kalmar FF Ativo 96 / 106 40% 2 22.11.2027 -
Felipe Faúndez O'Higgins Ativo 95 / 102 40% 4 20.11.2027 -
Laurent Batshuayi PSV Ativo 141 / 145 40% 1 18.11.2027 -
Dmitry Pestryakov Dinamo Moscow Ativo 113 / 124 40% 2 17.11.2027 -
Fillip Jenssen Riise Stabaek Ativo 92 / 107 40% 2 10.11.2027 -
Juan Morán Godoy Cruz Ativo 99 / 116 40% 3 10.11.2027 -
Celías Ingenthron Vélez Ativo 128 / 128 40% 3 02.11.2027 -
Sam Curtis Cambridge United Ativo 108 / 110 40% 1 01.11.2027 -
David Valencia Alianza Petrolera Ativo 112 / 134 40% 3 24.10.2027 -
Olaniyi Saheed Kwara United Ativo 86 / 96 40% 2 24.10.2027 -
Jaydee Canvot AJ Auxerre Ativo 136 / 140 40% 1 19.10.2027 -
Mio Zimmermann Luzern Ativo 107 / 109 40% 1 13.10.2027 -
Neil Volken Zurich Ativo 106 / 105 40% 2 12.10.2027 -
Nazareno Roselli Defensa y Justicia Ativo 116 / 121 40% 1 11.10.2027 -
Yiandro Raap Ilves Ativo 102 / 98 40% 1 10.10.2027 -
Jakob Schöller Rapid Wien Ativo 113 / 115 40% 1 08.10.2027 -
Felipe Obradovich Ferro Carril Oeste Ativo 94 / 123 40% 1 07.10.2027 -
Hervin Goyes Deportivo Pasto Ativo 94 / 109 40% 1 05.10.2027 -
Eliás Montiel Werder Bremen Ativo 134 / 134 40% 1 28.09.2027 -
Figueiredo Sampaio Correa Ativo 95 / 91 40% 2 25.09.2027 -
Josh King Chelsea Ativo 149 / 149 40% 2 24.09.2027 -
Kosta Nedeljković Aston Villa Ativo 135 / 141 40% 1 17.09.2027 -
Gadiel Paoli River Plate Ativo 80 / 105 40% 1 16.09.2027 -
Yusi Alavés Ativo 142 / 138 40% 4 15.09.2027 -
Héctor Fort Real Sociedad Ativo 143 / 142 40% 1 14.09.2027 -
Mbekezeli Mbokazi Chicago Fire Ativo 117 / 135 40% 1 11.09.2027 -
Aljoscha Kemlein Union Berlin Ativo 132 / 131 62% 1 09.08.2027 Aprovar
Luis Vázquez Birmingham Ativo 131 / 130 40% 4 05.07.2027 -
Adrián Niño Málaga Ativo 135 / 125 40% 3 05.07.2027 -
Ricardo Pepi Chelsea Negociando 142 / 145 93% 1 01.06.2027 -
Joane Gadou Borussia Dortmund Ativo 125 / 131 62% 1 01.06.2027 Aprovar
Andrés Martín Racing Santander Ativo 131 / 131 40% 9 30.05.2027 -
Joe Gelhardt Hull City Ativo 130 / 132 40% 1 29.05.2027 -
Maroan Sannadi Athletic Bilbao Ativo 137 / 140 40% 1 29.05.2027 -
Georges Mikautadze Villarreal Ativo 146 / 151 40% 9 27.05.2027 -
Thiago Brentford Ativo 151 / 150 40% 2 27.05.2027 -
Daniel Kelly Oxford United Ativo 103 / 120 40% 1 27.05.2027 -
Georginio Rutter Brighton Ativo 142 / 145 40% 7 22.05.2027 -
Ozziel Herrera Tigres Ativo 125 / 131 40% 3 22.05.2027 -
Víctor Mollejo Burgos Ativo 119 / 118 40% 2 20.05.2027 -
Tommy Conway Middlesbrough Ativo 140 / 132 40% 2 19.05.2027 -
Lee Bonis Chesterfield Ativo 96 / 106 40% 2 19.05.2027 -
Abel Ruiz Girona Ativo 133 / 140 40% 4 17.05.2027 -
Tyrese Campbell Sheffield United Ativo 123 / 129 40% 1 17.05.2027 -
Ilyas Ansah Hull City Ativo 125 / 133 40% 3 14.05.2027 -
Dom Ballard Leyton Orient Ativo 116 / 123 40% 2 14.05.2027 -
Ez Abde Girona Ativo 148 / 153 40% 5 13.05.2027 -
Adam Hložek TSG Hoffenheim Ativo 142 / 132 40% 3 13.05.2027 -
Diego López Rayo Vallecano Ativo 134 / 134 40% 4 12.05.2027 -
Hugo Duro Valencia Ativo 141 / 139 40% 3 12.05.2027 -
Joaquín Panichelli Le Havre AC Ativo 141 / 142 40% 1 10.05.2027 -
Jobe Bellingham Köln Ativo 136 / 142 40% 4 08.05.2027 -
Lorent Tolaj Plymouth Argyle Ativo 122 / 123 40% 2 03.05.2027 -
Troy Parrott Betis Ativo 132 / 134 40% 2 03.05.2027 -
Davide Bartesaghi AC Milan Ativo 131 / 137 40% 1 03.05.2027 -
Will Lankshear Middlesbrough Ativo 127 / 126 40% 2 30.04.2027 -
Rômulo RB Leipzig Ativo 150 / 143 40% 1 29.04.2027 -
Aune Heggebø West Bromwich Albion Ativo 136 / 124 40% 2 26.04.2027 -
Giacomo Raspadori Atalanta Ativo 149 / 146 40% 7 25.04.2027 -
Robert Mizo Ashanti Gold Ativo 95 / 107 40% 1 25.04.2027 -
Matías Gómez Granada Ativo 119 / 125 40% 1 22.04.2027 -
Jonas Harder Basel Ativo 104 / 122 40% 1 19.04.2027 -
Richard Koné Queens Park Rangers Ativo 127 / 124 40% 4 16.04.2027 -
Assane Diao Lazio Ativo 143 / 152 40% 2 15.04.2027 -
Dávid Strelec Middlesbrough Ativo 144 / 139 40% 1 15.04.2027 -
Jonathan Dubasin Osasuna Ativo 143 / 143 40% 1 14.04.2027 -
Mandla Mahlangu Ajax Cape Town Ativo 114 / 103 40% 2 12.04.2027 -
Yuito Suzuki SC Freiburg Ativo 129 / 136 40% 1 11.04.2027 -
Yousef Salech Cardiff City Ativo 124 / 130 40% 3 09.04.2027 -
Derry Scherhant SC Freiburg Ativo 133 / 125 40% 1 06.04.2027 -
Takefusa Kubo Real Sociedad Ativo 157 / 158 40% 4 04.04.2027 -
Wilson Isidor Sunderland Ativo 132 / 136 40% 2 03.04.2027 -
Ansu Fati Monaco Ativo 145 / 141 40% 1 02.04.2027 -
Dango Ouattara Brentford Ativo 153 / 144 40% 3 01.04.2027 -
Iwan Morgan Grimsby Town Ativo 109 / 114 40% 1 01.04.2027 -
Tani Oluwaseyi Villarreal Ativo 152 / 138 40% 5 30.03.2027 -
Toni Tamarit Alverca Ativo 113 / 121 40% 1 29.03.2027 -
Daniel Vernattus Metalist Ativo 88 / 100 40% 1 29.03.2027 -
Nicolas Jackson Aston Villa Ativo 142 / 151 40% 2 26.03.2027 -
Mateo Pellegrino Fiorentina Ativo 143 / 141 40% 2 25.03.2027 -
Christ Inao Oulaï Fiorentina Ativo 126 / 143 40% 1 21.03.2027 -
Tiago Freitas Benfica Ativo 111 / 112 40% 1 17.03.2027 -
Percy Jali Free State Stars Ativo 92 / 96 40% 1 17.03.2027 -
Andrea Pinamonti Lazio Ativo 142 / 141 40% 3 16.03.2027 -
Tom Cannon Sheffield United Ativo 124 / 126 40% 2 10.03.2027 -
Evidence Makgopa Orlando Pirates Ativo 117 / 120 40% 1 09.03.2027 -
Adriano Bertaccini Anderlecht Ativo 120 / 127 40% 1 05.03.2027 -
Terem Moffi Hamburger SV Ativo 122 / 131 40% 1 05.03.2027 -
Jack Hinshelwood Brighton Ativo 145 / 149 40% 1 04.03.2027 -
Tyreece Campbell Charlton Athletic Ativo 114 / 119 40% 1 02.03.2027 -
Cheveyo Tsawa Club Brugge Ativo 124 / 130 40% 2 28.02.2027 -
Gonçalo Oliveira Benfica Ativo 114 / 109 40% 1 28.02.2027 -
Joaquin Seys Club Brugge Ativo 119 / 131 40% 2 24.02.2027 -
Nicolò Tresoldi Club Brugge Ativo 135 / 130 40% 1 21.02.2027 -
Adnan Courtois KV Oostende Ativo 135 / 135 40% 1 18.02.2027 -
Keagan Phiri Platinum Stars Ativo 97 / 102 40% 1 16.02.2027 -
Morgan Whittaker Middlesbrough Ativo 133 / 128 40% 1 16.02.2027 -
Roberto Fernández Braga Ativo 145 / 141 40% 1 11.02.2027 -
Thijmen Blokzijl Groningen Ativo 122 / 122 40% 1 10.02.2027 -
José Pachuca Puebla Ativo 120 / 112 40% 1 08.02.2027 -
Mexx Meerdink AZ Ativo 137 / 128 40% 1 04.02.2027 -
Marvin Keller Bayer Leverkusen Negociando 136 / 137 67% 1 01.01.2027 -
Rogério VfL Wolfsburg Ativo 134 / 125 55% 1 01.01.2027 -
Mikel Jauregizar Athletic Bilbao Ativo 161 / 159 40% 1 29.12.2026 -
Christian Krasnodar Ativo 144 / 135 40% 4 28.12.2026 -
Hugo Álvarez Celta Ativo 133 / 140 40% 2 27.12.2026 -
Othmane Maamma Watford Ativo 124 / 121 40% 1 27.12.2026 -
Marquinhos Spartak Moscow Ativo 136 / 135 40% 2 26.12.2026 -
Jack Rudoni Coventry City Ativo 131 / 134 40% 1 25.12.2026 -
Diego Lainez Tigres Ativo 123 / 127 40% 2 23.12.2026 -
Lucien Agoumé Sevilla Ativo 147 / 138 40% 1 23.12.2026 -
Iliman N'Diaye Everton Ativo 158 / 158 40% 3 21.12.2026 -
Jarrad Branthwaite Everton Ativo 159 / 154 40% 1 21.12.2026 -
Jesús Vázquez Valencia Ativo 129 / 142 40% 1 21.12.2026 -
Pol Lozano Espanyol Ativo 136 / 137 40% 2 16.12.2026 -
Mats Wieffer Brighton Ativo 142 / 151 40% 2 15.12.2026 -
Félix Lemaréchal Club Brugge Ativo 138 / 140 40% 2 15.12.2026 -
Jacob Ramsey Newcastle United Ativo 152 / 143 40% 3 14.12.2026 -
Amine Adli Bournemouth Ativo 135 / 143 40% 2 14.12.2026 -
Víctor Gómez Braga Ativo 150 / 134 40% 1 14.12.2026 -
Aimar Osasuna Ativo 148 / 146 40% 3 12.12.2026 -
Miguel Gutiérrez Bayer Leverkusen Ativo 150 / 150 40% 2 12.12.2026 -
Carlos Vicente Birmingham Ativo 152 / 146 40% 5 11.12.2026 -
Derensili Sanches Fernandes Huddersfield Town Ativo 134 / 122 40% 1 11.12.2026 -
Nico Williams Athletic Bilbao Ativo 176 / 167 40% 1 10.12.2026 -
Nicolas Seiwald RB Leipzig Ativo 146 / 151 40% 1 08.12.2026 -
Juanlu Bournemouth Ativo 140 / 151 40% 1 08.12.2026 -
Gabriel Martinelli Brighton Ativo 160 / 157 40% 2 06.12.2026 -
José Ángel Carmona Sevilla Ativo 156 / 149 40% 1 06.12.2026 -
Brian Gutiérrez Guadalajara Ativo 137 / 131 40% 2 04.12.2026 -
Matt O'Riley Brighton Ativo 138 / 139 40% 2 02.12.2026 -
Couhaib Driouech Celta Ativo 139 / 136 40% 1 01.12.2026 -
Yehor Yarmoliuk Brentford Ativo 152 / 153 40% 1 30.11.2026 -
Arnau Martínez Valencia Ativo 151 / 145 40% 1 30.11.2026 -
Kevin Fulham Ativo 144 / 150 40% 1 28.11.2026 -
Samuel Lino Flamengo Ativo 123 / 146 40% 1 26.11.2026 Mais informações
Carlos Alcaraz Everton Ativo 135 / 141 40% 1 26.11.2026 -
Amadou Onana Aston Villa Ativo 152 / 157 40% 2 24.11.2026 -
Alvyn Sanches Young Boys Ativo 121 / 131 40% 3 23.11.2026 -
Aaron Hickey Brentford Ativo 149 / 147 40% 1 23.11.2026 -
Tyler Adams Bournemouth Ativo 156 / 154 40% 1 20.11.2026 -
Jadon Sancho Manchester United Ativo 140 / 153 40% 2 18.11.2026 -
Pape Guèye Villarreal Ativo 145 / 151 40% 2 16.11.2026 -
Sven Botman Newcastle United Ativo 150 / 163 40% 1 16.11.2026 -
Malik Tillman Bayer Leverkusen Ativo 153 / 155 40% 1 16.11.2026 -
Xavi Simons Tottenham Ativo 164 / 163 40% 1 14.11.2026 -
Anel Ahmedhodžić Burnley Ativo 139 / 136 40% 1 13.11.2026 -
Tyrell Malacia Monaco Ativo 137 / 133 40% 1 13.11.2026 -
Christoph Baumgartner RB Leipzig Ativo 164 / 145 40% 2 12.11.2026 -
Nico González Newcastle United Ativo 168 / 157 40% 1 10.11.2026 -
Gavi Barcelona Ativo 162 / 165 40% 1 10.11.2026 -
Ferdi Kadıoğlu Brighton Ativo 154 / 150 40% 1 07.11.2026 -
Angelo Stiller VfB Stuttgart Ativo 142 / 153 40% 1 07.11.2026 -
Bryan Gil Girona Ativo 140 / 144 40% 1 04.11.2026 -
Bilal El Khannouss VfB Stuttgart Ativo 152 / 154 40% 2 01.11.2026 -
Christian Witzig St. Gallen Ativo 126 / 118 40% 1 01.11.2026 -
Mattia Zanotti Lugano Ativo 125 / 126 40% 2 31.10.2026 -
Moussa Diaby Bayer Leverkusen Ativo 157 / 150 40% 1 30.10.2026 -
Justin Kluivert Bournemouth Ativo 146 / 150 40% 1 27.10.2026 -
Yeremy Pino Crystal Palace Ativo 138 / 144 40% 3 21.10.2026 -
Rémi Lemoine Chamois Niortais Ativo 166 / 153 40% 1 18.10.2026 -
Maurits Kjærgaard Red Bull Salzburg Ativo 139 / 128 40% 1 17.10.2026 -
Marcelo Allende Mamelodi Sundowns Ativo 129 / 120 40% 1 17.10.2026 -
Finn Azaz Southampton Ativo 135 / 124 40% 1 16.10.2026 -
Elliot Anderson Manchester City Ativo 142 / 150 40% 1 13.10.2026 -
Javi Rodríguez Celta Ativo 149 / 149 40% 1 05.10.2026 -
Curtis Jones Inter Ativo 149 / 155 40% 1 05.10.2026 -
Mayckel Lahdo Malmo FF Ativo 117 / 127 40% 1 02.10.2026 -
Nuno Moreira Vasco da Gama Ativo 146 / 134 40% 1 02.10.2026 -
Iván Angulo Orlando City Ativo 137 / 122 40% 2 01.10.2026 -
Adrien Truffert Bournemouth Ativo 150 / 144 40% 1 30.09.2026 -
Adam Wharton Crystal Palace Ativo 145 / 153 40% 1 29.09.2026 -
Brian Rodríguez Club America Ativo 111 / 122 40% 1 26.09.2026 -
Isaac Schmidt Young Boys Ativo 119 / 120 40% 2 25.09.2026 -
Santiago Rodríguez Columbus Crew Ativo 146 / 118 40% 1 25.09.2026 -
Tiago Palacios Estudiantes Ativo 109 / 123 40% 1 23.09.2026 -
Yorbe Vertessen Red Bull Salzburg Ativo 114 / 130 40% 1 14.09.2026 -
Jacob Greaves Ipswich Town Ativo 123 / 128 40% 1 13.09.2026 -
Ilaix Moriba Celta Ativo 141 / 151 40% 1 13.09.2026 -
Callum Hudson-Odoi Nottingham Forest Ativo 153 / 152 40% 1 12.09.2026 -
Hector Ramirez Newcastle United Ativo 157 / 156 40% 1 11.09.2026 -
Bryan Ramírez FC Cincinnati Ativo 135 / 128 40% 1 09.09.2026 -
Neco Williams Nottingham Forest Ativo 139 / 140 40% 1 08.09.2026 -
Cheick Doucouré Crystal Palace Ativo 128 / 136 40% 1 08.09.2026 -
El Hadji Malick Diouf Brentford Ativo 144 / 143 40% 1 01.09.2026 -
Nico O'Reilly Manchester City Ativo 163 / 152 40% 1 01.09.2026 -
Nicolás Ibáñez Mainz 05 Ativo 128 / 127 40% 1 10.08.2026 -
Serhou Guirassy Borussia Dortmund Ativo 174 / 168 40% 1 01.08.2026 -